CheckWX is a tool to help pilots better visualize weather data.  It is not intended as a substitute for an official pre-flight weather briefing.

20:31:10 UTC

KFHR METAR
Friday Harbor Airport
Friday Harbor, Washington, USA
Current

38 mins ago

KFHR 181953Z AUTO 10004KT 10SM SCT036 OVC049 04/M01 A3042 RMK AO2 SLP301 T00441011
Observed
Feb-18 @ 19:53 UTC
Wind
  • 100° at 4 KTS
Visibility
10 SM
Flight Rules
VFR
Cloud Levels
  • Scattered at 3,600' AGL
  • Overcast at 4,900' AGL
Temperature
C / 39°F
Dewpoint
-1°C / 30°F
Humidity
70%
Altimeter
30.42" Hg
Pressure
1030.1 hPa
Previous

2 hours ago

KFHR 181853Z AUTO 11004KT 10SM OVC036 04/M02 A3042 RMK AO2 SLP302 T00441017
Observed
Feb-18 @ 18:53 UTC
Wind
  • 110° at 4 KTS
Visibility
10 SM
Flight Rules
VFR
Cloud Levels
  • Overcast at 3,600' AGL
Temperature
C / 39°F
Dewpoint
-2°C / 28°F
Humidity
65%
Altimeter
30.42" Hg
Pressure
1030.2 hPa
Previous

3 hours ago

KFHR 181753Z AUTO 10005KT 10SM BKN037 OVC060 04/M02 A3041 RMK AO2 SLP300 T00391022 10039 21006 51008
Observed
Feb-18 @ 17:53 UTC
Wind
  • 100° at 5 KTS
Visibility
10 SM
Flight Rules
VFR
Cloud Levels
  • Broken at 3,700' AGL
  • Overcast at 6,000' AGL
Temperature
C / 39°F
Dewpoint
-2°C / 28°F
Humidity
65%
Altimeter
30.41" Hg
Pressure
1030 hPa